sensor_id;sensor_type;location;lat;lon;timestamp;P1;durP1;ratioP1;P2;durP2;ratioP2
71814;SDS011;59659;41.520;23.794;2023-12-20T00:01:06;22.70;;;12.05;;
71814;SDS011;59659;41.520;23.794;2023-12-20T00:02:25;21.13;;;10.23;;
71814;SDS011;59659;41.520;23.794;2023-12-20T00:03:37;15.60;;;9.80;;
71814;SDS011;59659;41.520;23.794;2023-12-20T00:04:53;18.30;;;9.95;;
71814;SDS011;59659;41.520;23.794;2023-12-20T00:06:04;21.77;;;12.07;;
71814;SDS011;59659;41.520;23.794;2023-12-20T00:07:16;17.52;;;9.75;;
71814;SDS011;59659;41.520;23.794;2023-12-20T00:08:28;15.13;;;9.35;;
71814;SDS011;59659;41.520;23.794;2023-12-20T00:09:39;23.00;;;9.60;;
71814;SDS011;59659;41.520;23.794;2023-12-20T00:10:51;19.15;;;10.57;;
71814;SDS011;59659;41.520;23.794;2023-12-20T00:12:02;23.40;;;11.93;;
71814;SDS011;59659;41.520;23.794;2023-12-20T00:13:14;22.95;;;10.25;;
71814;SDS011;59659;41.520;23.794;2023-12-20T00:14:25;28.45;;;11.95;;
71814;SDS011;59659;41.520;23.794;2023-12-20T00:15:37;21.83;;;11.65;;
71814;SDS011;59659;41.520;23.794;2023-12-20T00:16:48;26.48;;;11.90;;
71814;SDS011;59659;41.520;23.794;2023-12-20T00:18:00;20.13;;;10.35;;
71814;SDS011;59659;41.520;23.794;2023-12-20T00:19:12;18.08;;;10.75;;
71814;SDS011;59659;41.520;23.794;2023-12-20T00:20:24;24.60;;;12.02;;
71814;SDS011;59659;41.520;23.794;2023-12-20T00:21:35;23.55;;;11.77;;
71814;SDS011;59659;41.520;23.794;2023-12-20T00:22:47;26.25;;;13.18;;
71814;SDS011;59659;41.520;23.794;2023-12-20T00:23:58;32.00;;;11.23;;
71814;SDS011;59659;41.520;23.794;2023-12-20T00:25:10;26.83;;;11.88;;
71814;SDS011;59659;41.520;23.794;2023-12-20T00:26:21;24.85;;;11.23;;
71814;SDS011;59659;41.520;23.794;2023-12-20T00:27:33;23.20;;;12.13;;
71814;SDS011;59659;41.520;23.794;2023-12-20T00:28:45;24.08;;;11.80;;
71814;SDS011;59659;41.520;23.794;2023-12-20T00:29:56;21.15;;;10.70;;
71814;SDS011;59659;41.520;23.794;2023-12-20T00:31:08;29.15;;;11.27;;
71814;SDS011;59659;41.520;23.794;2023-12-20T00:32:20;22.88;;;11.10;;
71814;SDS011;59659;41.520;23.794;2023-12-20T00:33:31;19.58;;;10.05;;
71814;SDS011;59659;41.520;23.794;2023-12-20T00:34:43;19.75;;;10.32;;
71814;SDS011;59659;41.520;23.794;2023-12-20T00:35:54;21.55;;;9.93;;
71814;SDS011;59659;41.520;23.794;2023-12-20T00:37:06;18.40;;;9.30;;
71814;SDS011;59659;41.520;23.794;2023-12-20T00:38:17;22.20;;;11.27;;
71814;SDS011;59659;41.520;23.794;2023-12-20T00:39:29;26.02;;;10.50;;
71814;SDS011;59659;41.520;23.794;2023-12-20T00:40:40;22.83;;;10.95;;
71814;SDS011;59659;41.520;23.794;2023-12-20T00:41:52;23.20;;;10.57;;
71814;SDS011;59659;41.520;23.794;2023-12-20T00:43:04;16.83;;;9.38;;
71814;SDS011;59659;41.520;23.794;2023-12-20T00:44:15;23.38;;;10.30;;
71814;SDS011;59659;41.520;23.794;2023-12-20T00:45:27;22.65;;;10.10;;
71814;SDS011;59659;41.520;23.794;2023-12-20T00:46:38;17.80;;;10.40;;
71814;SDS011;59659;41.520;23.794;2023-12-20T00:47:50;20.05;;;9.02;;
71814;SDS011;59659;41.520;23.794;2023-12-20T00:49:02;16.60;;;9.10;;
71814;SDS011;59659;41.520;23.794;2023-12-20T00:50:13;13.65;;;7.65;;
71814;SDS011;59659;41.520;23.794;2023-12-20T00:51:25;21.35;;;9.32;;
71814;SDS011;59659;41.520;23.794;2023-12-20T00:52:37;20.05;;;10.27;;
71814;SDS011;59659;41.520;23.794;2023-12-20T00:53:49;16.90;;;9.40;;
71814;SDS011;59659;41.520;23.794;2023-12-20T00:55:01;15.20;;;8.32;;
71814;SDS011;59659;41.520;23.794;2023-12-20T00:56:13;23.05;;;9.45;;
71814;SDS011;59659;41.520;23.794;2023-12-20T00:57:24;17.60;;;8.27;;
71814;SDS011;59659;41.520;23.794;2023-12-20T00:58:36;22.83;;;9.15;;
71814;SDS011;59659;41.520;23.794;2023-12-20T00:59:48;15.95;;;7.55;;
71814;SDS011;59659;41.520;23.794;2023-12-20T01:00:59;17.35;;;9.25;;
71814;SDS011;59659;41.520;23.794;2023-12-20T01:02:11;16.20;;;7.30;;
71814;SDS011;59659;41.520;23.794;2023-12-20T01:03:23;18.08;;;9.15;;
71814;SDS011;59659;41.520;23.794;2023-12-20T01:04:34;20.75;;;9.10;;
71814;SDS011;59659;41.520;23.794;2023-12-20T01:05:46;19.50;;;7.32;;
71814;SDS011;59659;41.520;23.794;2023-12-20T01:06:58;25.55;;;10.15;;
71814;SDS011;59659;41.520;23.794;2023-12-20T01:08:09;13.00;;;7.20;;
71814;SDS011;59659;41.520;23.794;2023-12-20T01:09:21;17.33;;;9.20;;
71814;SDS011;59659;41.520;23.794;2023-12-20T01:10:34;17.80;;;8.45;;
71814;SDS011;59659;41.520;23.794;2023-12-20T01:11:46;18.52;;;8.70;;
71814;SDS011;59659;41.520;23.794;2023-12-20T01:12:57;17.20;;;9.77;;
71814;SDS011;59659;41.520;23.794;2023-12-20T01:14:09;23.73;;;11.05;;
71814;SDS011;59659;41.520;23.794;2023-12-20T01:15:21;13.13;;;7.28;;
71814;SDS011;59659;41.520;23.794;2023-12-20T01:16:32;22.65;;;10.32;;
71814;SDS011;59659;41.520;23.794;2023-12-20T01:17:44;23.83;;;10.48;;
71814;SDS011;59659;41.520;23.794;2023-12-20T01:18:56;19.30;;;9.00;;
71814;SDS011;59659;41.520;23.794;2023-12-20T01:20:07;19.88;;;10.50;;
71814;SDS011;59659;41.520;23.794;2023-12-20T01:21:19;18.48;;;10.07;;
71814;SDS011;59659;41.520;23.794;2023-12-20T01:22:31;19.85;;;8.45;;
71814;SDS011;59659;41.520;23.794;2023-12-20T01:23:42;29.38;;;10.23;;
71814;SDS011;59659;41.520;23.794;2023-12-20T01:24:54;17.70;;;9.77;;
71814;SDS011;59659;41.520;23.794;2023-12-20T01:26:06;18.02;;;9.55;;
71814;SDS011;59659;41.520;23.794;2023-12-20T01:27:17;20.55;;;9.50;;
71814;SDS011;59659;41.520;23.794;2023-12-20T01:28:29;20.27;;;11.60;;
71814;SDS011;59659;41.520;23.794;2023-12-20T01:29:41;22.40;;;9.95;;
71814;SDS011;59659;41.520;23.794;2023-12-20T01:30:52;21.67;;;11.32;;
71814;SDS011;59659;41.520;23.794;2023-12-20T01:32:04;18.40;;;9.35;;
71814;SDS011;59659;41.520;23.794;2023-12-20T01:33:16;28.10;;;12.70;;
71814;SDS011;59659;41.520;23.794;2023-12-20T01:34:27;20.00;;;10.73;;
71814;SDS011;59659;41.520;23.794;2023-12-20T01:35:39;22.77;;;10.32;;
71814;SDS011;59659;41.520;23.794;2023-12-20T01:36:50;19.10;;;10.52;;
71814;SDS011;59659;41.520;23.794;2023-12-20T01:38:02;23.35;;;9.00;;
71814;SDS011;59659;41.520;23.794;2023-12-20T01:39:14;23.00;;;10.02;;
71814;SDS011;59659;41.520;23.794;2023-12-20T01:40:38;22.30;;;10.90;;
71814;SDS011;59659;41.520;23.794;2023-12-20T01:41:49;19.52;;;9.60;;
71814;SDS011;59659;41.520;23.794;2023-12-20T01:43:02;22.85;;;10.30;;
71814;SDS011;59659;41.520;23.794;2023-12-20T01:44:13;35.92;;;13.38;;
71814;SDS011;59659;41.520;23.794;2023-12-20T01:45:25;19.88;;;10.20;;
71814;SDS011;59659;41.520;23.794;2023-12-20T01:46:37;27.42;;;11.63;;
71814;SDS011;59659;41.520;23.794;2023-12-20T01:47:48;31.40;;;13.85;;
71814;SDS011;59659;41.520;23.794;2023-12-20T01:49:00;24.42;;;11.75;;
71814;SDS011;59659;41.520;23.794;2023-12-20T01:50:12;35.47;;;12.95;;
71814;SDS011;59659;41.520;23.794;2023-12-20T01:51:24;41.88;;;14.15;;
71814;SDS011;59659;41.520;23.794;2023-12-20T01:52:36;34.95;;;15.13;;
71814;SDS011;59659;41.520;23.794;2023-12-20T01:53:48;26.30;;;12.85;;
71814;SDS011;59659;41.520;23.794;2023-12-20T01:54:59;38.00;;;12.23;;
71814;SDS011;59659;41.520;23.794;2023-12-20T01:56:15;34.55;;;13.77;;
71814;SDS011;59659;41.520;23.794;2023-12-20T01:57:27;40.42;;;15.38;;
71814;SDS011;59659;41.520;23.794;2023-12-20T01:58:39;30.33;;;13.57;;
71814;SDS011;59659;41.520;23.794;2023-12-20T01:59:54;32.70;;;11.73;;
71814;SDS011;59659;41.520;23.794;2023-12-20T02:01:06;34.67;;;13.85;;
71814;SDS011;59659;41.520;23.794;2023-12-20T02:02:18;36.38;;;12.60;;
71814;SDS011;59659;41.520;23.794;2023-12-20T02:03:30;22.52;;;9.82;;
71814;SDS011;59659;41.520;23.794;2023-12-20T02:04:41;30.98;;;12.27;;
71814;SDS011;59659;41.520;23.794;2023-12-20T02:05:53;21.02;;;9.15;;
71814;SDS011;59659;41.520;23.794;2023-12-20T02:07:05;44.78;;;13.13;;
71814;SDS011;59659;41.520;23.794;2023-12-20T02:08:17;25.17;;;10.30;;
71814;SDS011;59659;41.520;23.794;2023-12-20T02:09:28;26.05;;;10.70;;
71814;SDS011;59659;41.520;23.794;2023-12-20T02:10:40;16.55;;;9.80;;
71814;SDS011;59659;41.520;23.794;2023-12-20T02:11:52;19.58;;;8.55;;
71814;SDS011;59659;41.520;23.794;2023-12-20T02:13:04;20.38;;;9.43;;
71814;SDS011;59659;41.520;23.794;2023-12-20T02:14:15;23.23;;;9.68;;
71814;SDS011;59659;41.520;23.794;2023-12-20T02:15:27;23.10;;;8.30;;
71814;SDS011;59659;41.520;23.794;2023-12-20T02:16:39;23.08;;;11.15;;
71814;SDS011;59659;41.520;23.794;2023-12-20T02:17:50;19.45;;;9.23;;
71814;SDS011;59659;41.520;23.794;2023-12-20T02:19:03;26.17;;;10.10;;
71814;SDS011;59659;41.520;23.794;2023-12-20T02:20:15;24.63;;;9.52;;
71814;SDS011;59659;41.520;23.794;2023-12-20T02:21:32;27.90;;;11.02;;
71814;SDS011;59659;41.520;23.794;2023-12-20T02:22:45;21.98;;;10.65;;
71814;SDS011;59659;41.520;23.794;2023-12-20T02:23:57;21.20;;;11.05;;
71814;SDS011;59659;41.520;23.794;2023-12-20T02:25:08;20.75;;;9.38;;
71814;SDS011;59659;41.520;23.794;2023-12-20T02:26:20;24.05;;;9.27;;
71814;SDS011;59659;41.520;23.794;2023-12-20T02:27:31;21.05;;;10.20;;
71814;SDS011;59659;41.520;23.794;2023-12-20T02:28:43;29.10;;;11.10;;
71814;SDS011;59659;41.520;23.794;2023-12-20T02:29:54;25.95;;;11.20;;
71814;SDS011;59659;41.520;23.794;2023-12-20T02:31:06;18.73;;;9.52;;
71814;SDS011;59659;41.520;23.794;2023-12-20T02:32:18;26.63;;;11.15;;
71814;SDS011;59659;41.520;23.794;2023-12-20T02:33:33;27.00;;;10.65;;
71814;SDS011;59659;41.520;23.794;2023-12-20T02:34:45;25.70;;;10.88;;
71814;SDS011;59659;41.520;23.794;2023-12-20T02:35:57;17.88;;;10.65;;
71814;SDS011;59659;41.520;23.794;2023-12-20T02:37:09;23.30;;;10.52;;
71814;SDS011;59659;41.520;23.794;2023-12-20T02:38:20;25.52;;;12.40;;
71814;SDS011;59659;41.520;23.794;2023-12-20T02:39:32;31.98;;;12.77;;
71814;SDS011;59659;41.520;23.794;2023-12-20T02:40:44;31.95;;;14.43;;
71814;SDS011;59659;41.520;23.794;2023-12-20T02:42:00;33.78;;;11.80;;
71814;SDS011;59659;41.520;23.794;2023-12-20T02:43:11;18.52;;;9.57;;
71814;SDS011;59659;41.520;23.794;2023-12-20T02:44:23;24.58;;;10.20;;
71814;SDS011;59659;41.520;23.794;2023-12-20T02:45:34;24.73;;;10.88;;
71814;SDS011;59659;41.520;23.794;2023-12-20T02:46:46;31.65;;;12.82;;
71814;SDS011;59659;41.520;23.794;2023-12-20T02:47:58;24.80;;;11.48;;
71814;SDS011;59659;41.520;23.794;2023-12-20T02:49:09;29.77;;;11.95;;
71814;SDS011;59659;41.520;23.794;2023-12-20T02:50:21;26.17;;;11.30;;
71814;SDS011;59659;41.520;23.794;2023-12-20T02:51:33;29.20;;;11.68;;
71814;SDS011;59659;41.520;23.794;2023-12-20T02:52:44;25.08;;;11.52;;
71814;SDS011;59659;41.520;23.794;2023-12-20T02:53:56;23.13;;;11.23;;
71814;SDS011;59659;41.520;23.794;2023-12-20T02:55:08;28.63;;;11.25;;
71814;SDS011;59659;41.520;23.794;2023-12-20T02:56:19;22.23;;;11.77;;
71814;SDS011;59659;41.520;23.794;2023-12-20T02:57:31;26.00;;;11.80;;
71814;SDS011;59659;41.520;23.794;2023-12-20T02:58:43;27.83;;;11.27;;
71814;SDS011;59659;41.520;23.794;2023-12-20T02:59:55;24.83;;;12.43;;
71814;SDS011;59659;41.520;23.794;2023-12-20T03:01:06;21.60;;;11.82;;
71814;SDS011;59659;41.520;23.794;2023-12-20T03:02:18;29.08;;;11.70;;
71814;SDS011;59659;41.520;23.794;2023-12-20T03:03:29;27.95;;;11.95;;
71814;SDS011;59659;41.520;23.794;2023-12-20T03:04:41;19.17;;;10.02;;
71814;SDS011;59659;41.520;23.794;2023-12-20T03:05:52;28.45;;;11.90;;
71814;SDS011;59659;41.520;23.794;2023-12-20T03:07:04;27.45;;;11.60;;
71814;SDS011;59659;41.520;23.794;2023-12-20T03:08:16;24.48;;;13.48;;
71814;SDS011;59659;41.520;23.794;2023-12-20T03:09:27;32.55;;;14.90;;
71814;SDS011;59659;41.520;23.794;2023-12-20T03:10:41;46.35;;;12.13;;
71814;SDS011;59659;41.520;23.794;2023-12-20T03:11:53;27.42;;;12.93;;
71814;SDS011;59659;41.520;23.794;2023-12-20T03:13:04;40.72;;;16.05;;
71814;SDS011;59659;41.520;23.794;2023-12-20T03:14:16;29.02;;;13.50;;
71814;SDS011;59659;41.520;23.794;2023-12-20T03:15:27;21.55;;;11.85;;
71814;SDS011;59659;41.520;23.794;2023-12-20T03:16:39;23.88;;;12.15;;
71814;SDS011;59659;41.520;23.794;2023-12-20T03:17:50;28.40;;;11.75;;
71814;SDS011;59659;41.520;23.794;2023-12-20T03:19:02;24.42;;;12.25;;
71814;SDS011;59659;41.520;23.794;2023-12-20T03:20:14;20.63;;;10.85;;
71814;SDS011;59659;41.520;23.794;2023-12-20T03:21:26;23.88;;;10.95;;
71814;SDS011;59659;41.520;23.794;2023-12-20T03:22:37;22.80;;;11.57;;
71814;SDS011;59659;41.520;23.794;2023-12-20T03:23:49;35.42;;;11.55;;
71814;SDS011;59659;41.520;23.794;2023-12-20T03:25:00;28.65;;;11.23;;
71814;SDS011;59659;41.520;23.794;2023-12-20T03:26:12;25.70;;;11.63;;
71814;SDS011;59659;41.520;23.794;2023-12-20T03:27:24;30.17;;;13.60;;
71814;SDS011;59659;41.520;23.794;2023-12-20T03:28:38;25.20;;;11.15;;
71814;SDS011;59659;41.520;23.794;2023-12-20T03:29:50;28.23;;;10.90;;
71814;SDS011;59659;41.520;23.794;2023-12-20T03:31:02;25.50;;;11.88;;
71814;SDS011;59659;41.520;23.794;2023-12-20T03:32:14;25.50;;;10.82;;
71814;SDS011;59659;41.520;23.794;2023-12-20T03:33:25;24.40;;;11.75;;
71814;SDS011;59659;41.520;23.794;2023-12-20T03:34:37;28.52;;;11.07;;
71814;SDS011;59659;41.520;23.794;2023-12-20T03:35:49;22.60;;;10.65;;
71814;SDS011;59659;41.520;23.794;2023-12-20T03:37:00;25.42;;;10.95;;
71814;SDS011;59659;41.520;23.794;2023-12-20T03:38:12;26.05;;;11.85;;
71814;SDS011;59659;41.520;23.794;2023-12-20T03:39:23;24.85;;;11.68;;
71814;SDS011;59659;41.520;23.794;2023-12-20T03:40:35;18.60;;;9.60;;
71814;SDS011;59659;41.520;23.794;2023-12-20T03:41:46;15.75;;;8.25;;
71814;SDS011;59659;41.520;23.794;2023-12-20T03:42:58;22.92;;;10.43;;
71814;SDS011;59659;41.520;23.794;2023-12-20T03:44:09;23.05;;;10.05;;
71814;SDS011;59659;41.520;23.794;2023-12-20T03:45:21;19.63;;;8.98;;
71814;SDS011;59659;41.520;23.794;2023-12-20T03:46:33;18.38;;;9.45;;
71814;SDS011;59659;41.520;23.794;2023-12-20T03:47:44;18.50;;;10.20;;
71814;SDS011;59659;41.520;23.794;2023-12-20T03:48:56;21.65;;;11.40;;
71814;SDS011;59659;41.520;23.794;2023-12-20T03:50:08;20.65;;;9.75;;
71814;SDS011;59659;41.520;23.794;2023-12-20T03:51:19;27.45;;;10.82;;
71814;SDS011;59659;41.520;23.794;2023-12-20T03:52:31;16.90;;;8.77;;
71814;SDS011;59659;41.520;23.794;2023-12-20T03:53:42;20.30;;;9.68;;
71814;SDS011;59659;41.520;23.794;2023-12-20T03:54:54;19.65;;;9.85;;
71814;SDS011;59659;41.520;23.794;2023-12-20T03:56:05;18.00;;;7.55;;
71814;SDS011;59659;41.520;23.794;2023-12-20T03:57:17;16.17;;;7.25;;
71814;SDS011;59659;41.520;23.794;2023-12-20T03:58:29;21.30;;;6.35;;
71814;SDS011;59659;41.520;23.794;2023-12-20T03:59:40;24.83;;;10.18;;
71814;SDS011;59659;41.520;23.794;2023-12-20T04:00:52;22.10;;;8.35;;
71814;SDS011;59659;41.520;23.794;2023-12-20T04:02:04;23.60;;;8.70;;
71814;SDS011;59659;41.520;23.794;2023-12-20T04:03:15;24.25;;;9.35;;
71814;SDS011;59659;41.520;23.794;2023-12-20T04:04:27;15.57;;;7.75;;
71814;SDS011;59659;41.520;23.794;2023-12-20T04:05:40;21.25;;;7.68;;
71814;SDS011;59659;41.520;23.794;2023-12-20T04:06:51;23.08;;;8.88;;
71814;SDS011;59659;41.520;23.794;2023-12-20T04:08:03;18.23;;;7.75;;
71814;SDS011;59659;41.520;23.794;2023-12-20T04:09:15;16.45;;;9.15;;
71814;SDS011;59659;41.520;23.794;2023-12-20T04:10:26;25.67;;;7.05;;
71814;SDS011;59659;41.520;23.794;2023-12-20T04:11:38;9.75;;;7.82;;
71814;SDS011;59659;41.520;23.794;2023-12-20T04:12:50;34.28;;;7.88;;
71814;SDS011;59659;41.520;23.794;2023-12-20T04:14:01;17.73;;;8.95;;
71814;SDS011;59659;41.520;23.794;2023-12-20T04:15:13;15.65;;;6.57;;
71814;SDS011;59659;41.520;23.794;2023-12-20T04:16:24;15.52;;;6.88;;
71814;SDS011;59659;41.520;23.794;2023-12-20T04:17:36;32.03;;;10.05;;
71814;SDS011;59659;41.520;23.794;2023-12-20T04:18:48;30.83;;;6.65;;
71814;SDS011;59659;41.520;23.794;2023-12-20T04:19:59;14.77;;;6.85;;
71814;SDS011;59659;41.520;23.794;2023-12-20T04:21:11;14.70;;;6.50;;
71814;SDS011;59659;41.520;23.794;2023-12-20T04:22:23;13.50;;;8.10;;
71814;SDS011;59659;41.520;23.794;2023-12-20T04:23:34;10.13;;;6.28;;
71814;SDS011;59659;41.520;23.794;2023-12-20T04:24:46;12.82;;;7.47;;
71814;SDS011;59659;41.520;23.794;2023-12-20T04:25:57;13.07;;;6.45;;
71814;SDS011;59659;41.520;23.794;2023-12-20T04:27:09;16.30;;;6.68;;
71814;SDS011;59659;41.520;23.794;2023-12-20T04:28:21;12.38;;;7.32;;
71814;SDS011;59659;41.520;23.794;2023-12-20T04:29:32;14.85;;;6.35;;
71814;SDS011;59659;41.520;23.794;2023-12-20T04:30:44;13.55;;;7.72;;
71814;SDS011;59659;41.520;23.794;2023-12-20T04:31:55;13.98;;;7.53;;
71814;SDS011;59659;41.520;23.794;2023-12-20T04:33:07;11.00;;;6.63;;
71814;SDS011;59659;41.520;23.794;2023-12-20T04:34:18;19.35;;;6.95;;
71814;SDS011;59659;41.520;23.794;2023-12-20T04:35:30;13.90;;;6.15;;
71814;SDS011;59659;41.520;23.794;2023-12-20T04:36:42;14.55;;;8.05;;
71814;SDS011;59659;41.520;23.794;2023-12-20T04:37:53;33.33;;;12.95;;
71814;SDS011;59659;41.520;23.794;2023-12-20T04:39:05;27.35;;;12.80;;
71814;SDS011;59659;41.520;23.794;2023-12-20T04:40:17;43.70;;;14.93;;
71814;SDS011;59659;41.520;23.794;2023-12-20T04:41:29;32.22;;;14.30;;
71814;SDS011;59659;41.520;23.794;2023-12-20T04:42:41;26.23;;;11.43;;
71814;SDS011;59659;41.520;23.794;2023-12-20T04:43:53;30.20;;;13.63;;
71814;SDS011;59659;41.520;23.794;2023-12-20T04:45:04;30.58;;;13.98;;
71814;SDS011;59659;41.520;23.794;2023-12-20T04:46:16;25.80;;;13.52;;
71814;SDS011;59659;41.520;23.794;2023-12-20T04:47:27;28.13;;;12.00;;
71814;SDS011;59659;41.520;23.794;2023-12-20T04:48:39;28.25;;;10.98;;
71814;SDS011;59659;41.520;23.794;2023-12-20T04:49:51;38.95;;;13.43;;
71814;SDS011;59659;41.520;23.794;2023-12-20T04:51:02;27.88;;;11.80;;
71814;SDS011;59659;41.520;23.794;2023-12-20T04:52:14;33.25;;;11.82;;
71814;SDS011;59659;41.520;23.794;2023-12-20T04:53:26;43.70;;;15.32;;
71814;SDS011;59659;41.520;23.794;2023-12-20T04:54:38;24.25;;;12.63;;
71814;SDS011;59659;41.520;23.794;2023-12-20T04:55:53;42.03;;;12.60;;
71814;SDS011;59659;41.520;23.794;2023-12-20T04:57:05;29.58;;;15.82;;
71814;SDS011;59659;41.520;23.794;2023-12-20T04:58:16;39.42;;;15.88;;
71814;SDS011;59659;41.520;23.794;2023-12-20T04:59:28;31.48;;;14.73;;
71814;SDS011;59659;41.520;23.794;2023-12-20T05:00:40;46.15;;;18.05;;
71814;SDS011;59659;41.520;23.794;2023-12-20T05:01:52;39.85;;;16.10;;
71814;SDS011;59659;41.520;23.794;2023-12-20T05:03:04;23.85;;;12.40;;
71814;SDS011;59659;41.520;23.794;2023-12-20T05:04:15;41.00;;;14.77;;
71814;SDS011;59659;41.520;23.794;2023-12-20T05:05:27;21.67;;;9.60;;
71814;SDS011;59659;41.520;23.794;2023-12-20T05:06:38;21.17;;;10.73;;
71814;SDS011;59659;41.520;23.794;2023-12-20T05:07:50;18.00;;;8.48;;
71814;SDS011;59659;41.520;23.794;2023-12-20T05:09:02;35.50;;;11.15;;
71814;SDS011;59659;41.520;23.794;2023-12-20T05:10:14;34.17;;;12.98;;
71814;SDS011;59659;41.520;23.794;2023-12-20T05:11:26;29.50;;;12.93;;
71814;SDS011;59659;41.520;23.794;2023-12-20T05:12:37;27.00;;;13.60;;
71814;SDS011;59659;41.520;23.794;2023-12-20T05:13:49;24.90;;;12.57;;
71814;SDS011;59659;41.520;23.794;2023-12-20T05:15:01;30.52;;;13.48;;
71814;SDS011;59659;41.520;23.794;2023-12-20T05:16:12;33.88;;;12.13;;
71814;SDS011;59659;41.520;23.794;2023-12-20T05:17:25;29.00;;;13.48;;
71814;SDS011;59659;41.520;23.794;2023-12-20T05:18:37;31.33;;;13.18;;
71814;SDS011;59659;41.520;23.794;2023-12-20T05:19:49;33.03;;;15.18;;
71814;SDS011;59659;41.520;23.794;2023-12-20T05:21:00;32.78;;;13.73;;
71814;SDS011;59659;41.520;23.794;2023-12-20T05:22:12;23.77;;;13.30;;
71814;SDS011;59659;41.520;23.794;2023-12-20T05:23:23;31.63;;;11.98;;
71814;SDS011;59659;41.520;23.794;2023-12-20T05:24:35;33.08;;;12.02;;
71814;SDS011;59659;41.520;23.794;2023-12-20T05:25:46;66.32;;;13.80;;
71814;SDS011;59659;41.520;23.794;2023-12-20T05:26:58;31.23;;;15.55;;
71814;SDS011;59659;41.520;23.794;2023-12-20T05:28:10;23.92;;;12.43;;
71814;SDS011;59659;41.520;23.794;2023-12-20T05:29:21;35.72;;;13.68;;
71814;SDS011;59659;41.520;23.794;2023-12-20T05:30:33;29.83;;;11.25;;
71814;SDS011;59659;41.520;23.794;2023-12-20T05:31:46;44.33;;;12.80;;
71814;SDS011;59659;41.520;23.794;2023-12-20T05:32:57;37.55;;;13.13;;
71814;SDS011;59659;41.520;23.794;2023-12-20T05:34:09;32.25;;;12.75;;
71814;SDS011;59659;41.520;23.794;2023-12-20T05:35:21;36.70;;;11.98;;
71814;SDS011;59659;41.520;23.794;2023-12-20T05:36:35;29.15;;;12.75;;
71814;SDS011;59659;41.520;23.794;2023-12-20T05:37:47;44.55;;;14.18;;
71814;SDS011;59659;41.520;23.794;2023-12-20T05:38:59;24.65;;;11.90;;
71814;SDS011;59659;41.520;23.794;2023-12-20T05:40:10;32.70;;;12.02;;
71814;SDS011;59659;41.520;23.794;2023-12-20T05:41:22;33.25;;;10.57;;
71814;SDS011;59659;41.520;23.794;2023-12-20T05:42:35;30.90;;;11.88;;
71814;SDS011;59659;41.520;23.794;2023-12-20T05:43:47;41.80;;;17.50;;
71814;SDS011;59659;41.520;23.794;2023-12-20T05:44:58;25.42;;;11.90;;
71814;SDS011;59659;41.520;23.794;2023-12-20T05:46:10;19.67;;;10.27;;
71814;SDS011;59659;41.520;23.794;2023-12-20T05:47:23;15.77;;;10.10;;
71814;SDS011;59659;41.520;23.794;2023-12-20T05:48:35;14.52;;;8.10;;
71814;SDS011;59659;41.520;23.794;2023-12-20T05:49:46;17.77;;;9.23;;
71814;SDS011;59659;41.520;23.794;2023-12-20T05:50:58;14.30;;;7.72;;
71814;SDS011;59659;41.520;23.794;2023-12-20T05:52:10;18.20;;;7.65;;
71814;SDS011;59659;41.520;23.794;2023-12-20T05:53:21;16.25;;;8.05;;
71814;SDS011;59659;41.520;23.794;2023-12-20T05:54:33;20.13;;;8.45;;
71814;SDS011;59659;41.520;23.794;2023-12-20T05:55:45;16.10;;;7.70;;
71814;SDS011;59659;41.520;23.794;2023-12-20T05:56:57;12.68;;;6.95;;
71814;SDS011;59659;41.520;23.794;2023-12-20T05:58:08;18.77;;;10.02;;
71814;SDS011;59659;41.520;23.794;2023-12-20T05:59:20;21.38;;;10.15;;
71814;SDS011;59659;41.520;23.794;2023-12-20T06:00:32;19.52;;;11.10;;
71814;SDS011;59659;41.520;23.794;2023-12-20T06:01:43;17.83;;;9.35;;
71814;SDS011;59659;41.520;23.794;2023-12-20T06:02:55;28.30;;;10.68;;
71814;SDS011;59659;41.520;23.794;2023-12-20T06:04:07;23.73;;;11.25;;
71814;SDS011;59659;41.520;23.794;2023-12-20T06:05:19;16.90;;;8.98;;
71814;SDS011;59659;41.520;23.794;2023-12-20T06:06:30;22.90;;;12.07;;
71814;SDS011;59659;41.520;23.794;2023-12-20T06:07:42;22.98;;;12.07;;
71814;SDS011;59659;41.520;23.794;2023-12-20T06:08:54;24.63;;;11.13;;
71814;SDS011;59659;41.520;23.794;2023-12-20T06:10:06;26.55;;;13.15;;
71814;SDS011;59659;41.520;23.794;2023-12-20T06:11:17;40.20;;;17.88;;
71814;SDS011;59659;41.520;23.794;2023-12-20T06:12:29;44.72;;;18.05;;
71814;SDS011;59659;41.520;23.794;2023-12-20T06:13:43;51.13;;;18.85;;
71814;SDS011;59659;41.520;23.794;2023-12-20T06:14:54;64.88;;;28.08;;
71814;SDS011;59659;41.520;23.794;2023-12-20T06:16:06;101.68;;;34.80;;
71814;SDS011;59659;41.520;23.794;2023-12-20T06:17:21;89.90;;;34.15;;
71814;SDS011;59659;41.520;23.794;2023-12-20T06:18:32;115.07;;;48.92;;
71814;SDS011;59659;41.520;23.794;2023-12-20T06:19:44;97.13;;;45.20;;
71814;SDS011;59659;41.520;23.794;2023-12-20T06:20:59;114.40;;;44.92;;
71814;SDS011;59659;41.520;23.794;2023-12-20T06:22:11;104.40;;;42.20;;
71814;SDS011;59659;41.520;23.794;2023-12-20T06:23:23;106.60;;;42.10;;
71814;SDS011;59659;41.520;23.794;2023-12-20T06:24:34;87.65;;;38.53;;
71814;SDS011;59659;41.520;23.794;2023-12-20T06:25:46;75.47;;;32.30;;
71814;SDS011;59659;41.520;23.794;2023-12-20T06:26:57;74.05;;;29.30;;
71814;SDS011;59659;41.520;23.794;2023-12-20T06:28:09;54.28;;;21.90;;
71814;SDS011;59659;41.520;23.794;2023-12-20T06:29:21;47.03;;;23.08;;
71814;SDS011;59659;41.520;23.794;2023-12-20T06:30:33;45.33;;;21.83;;
71814;SDS011;59659;41.520;23.794;2023-12-20T06:31:45;46.42;;;19.42;;
71814;SDS011;59659;41.520;23.794;2023-12-20T06:32:57;54.80;;;21.63;;
71814;SDS011;59659;41.520;23.794;2023-12-20T06:34:09;40.28;;;19.55;;
71814;SDS011;59659;41.520;23.794;2023-12-20T06:35:22;49.13;;;20.27;;
71814;SDS011;59659;41.520;23.794;2023-12-20T06:36:33;57.70;;;21.50;;
71814;SDS011;59659;41.520;23.794;2023-12-20T06:37:45;46.38;;;20.77;;
71814;SDS011;59659;41.520;23.794;2023-12-20T06:38:57;37.25;;;15.07;;
71814;SDS011;59659;41.520;23.794;2023-12-20T06:40:09;44.35;;;22.52;;
71814;SDS011;59659;41.520;23.794;2023-12-20T06:41:28;46.65;;;21.85;;
71814;SDS011;59659;41.520;23.794;2023-12-20T06:42:40;70.15;;;23.33;;
71814;SDS011;59659;41.520;23.794;2023-12-20T06:44:04;50.83;;;18.95;;
71814;SDS011;59659;41.520;23.794;2023-12-20T06:45:16;37.97;;;19.05;;
71814;SDS011;59659;41.520;23.794;2023-12-20T06:46:27;53.30;;;20.65;;
71814;SDS011;59659;41.520;23.794;2023-12-20T06:47:39;51.75;;;20.42;;
71814;SDS011;59659;41.520;23.794;2023-12-20T06:48:51;32.97;;;15.57;;
71814;SDS011;59659;41.520;23.794;2023-12-20T06:50:02;78.20;;;22.33;;
71814;SDS011;59659;41.520;23.794;2023-12-20T06:51:15;42.15;;;18.52;;
71814;SDS011;59659;41.520;23.794;2023-12-20T06:52:27;39.47;;;15.90;;
71814;SDS011;59659;41.520;23.794;2023-12-20T06:53:38;39.22;;;19.50;;
71814;SDS011;59659;41.520;23.794;2023-12-20T06:54:50;40.40;;;19.33;;
71814;SDS011;59659;41.520;23.794;2023-12-20T06:56:02;33.22;;;15.45;;
71814;SDS011;59659;41.520;23.794;2023-12-20T06:57:14;28.02;;;11.80;;